createdAt,value
2023-03-17T00:01:58.792Z,14.40
2023-03-17T00:04:27.315Z,13.93
2023-03-17T00:06:55.094Z,13.85
2023-03-17T00:09:22.603Z,10.82
2023-03-17T00:11:50.122Z,12.07
2023-03-17T00:14:18.858Z,11.38
2023-03-17T00:16:49.855Z,12.88
2023-03-17T00:19:20.085Z,11.10
2023-03-17T00:21:47.980Z,11.02
2023-03-17T00:24:15.886Z,10.73
2023-03-17T00:26:43.617Z,11.10
2023-03-17T00:29:10.972Z,11.05
2023-03-17T00:31:39.210Z,10.85
2023-03-17T00:34:07.970Z,11.32
2023-03-17T00:36:35.642Z,11.32
2023-03-17T00:39:04.102Z,11.02
2023-03-17T00:41:31.347Z,11.50
2023-03-17T00:43:59.743Z,12.88
2023-03-17T00:46:35.438Z,13.27
2023-03-17T00:49:10.593Z,13.48
2023-03-17T00:51:40.727Z,13.18
2023-03-17T00:54:10.607Z,14.43
2023-03-17T00:56:38.590Z,12.90
2023-03-17T00:59:13.470Z,13.30
2023-03-17T01:01:40.693Z,11.48
2023-03-17T01:04:10.750Z,13.32
2023-03-17T01:06:38.043Z,11.98
2023-03-17T01:09:05.411Z,12.75
2023-03-17T01:11:32.792Z,11.63
2023-03-17T01:14:00.098Z,11.45
2023-03-17T01:16:29.936Z,11.98
2023-03-17T01:18:57.198Z,12.60
2023-03-17T01:21:24.563Z,13.50
2023-03-17T01:23:51.756Z,10.35
2023-03-17T01:26:19.120Z,10.88
2023-03-17T01:28:46.311Z,11.32
2023-03-17T01:31:13.644Z,11.32
2023-03-17T01:33:41.470Z,11.35
2023-03-17T01:36:09.844Z,9.65
2023-03-17T01:38:37.673Z,11.27
2023-03-17T01:41:05.444Z,11.77
2023-03-17T01:43:32.730Z,11.50
2023-03-17T01:46:21.928Z,11.65
2023-03-17T01:49:30.303Z,13.40
2023-03-17T01:52:18.266Z,13.82
2023-03-17T01:54:52.401Z,15.02
2023-03-17T01:57:31.918Z,13.60
2023-03-17T02:00:09.700Z,13.70
2023-03-17T02:02:45.497Z,15.10
2023-03-17T02:05:25.995Z,13.40
2023-03-17T02:07:54.444Z,14.55
2023-03-17T02:10:28.726Z,13.38
2023-03-17T02:13:00.393Z,13.32
2023-03-17T02:15:46.714Z,14.55
2023-03-17T02:18:14.401Z,12.70
2023-03-17T02:20:41.455Z,12.68
2023-03-17T02:23:10.736Z,11.70
2023-03-17T02:25:40.579Z,11.00
2023-03-17T02:28:11.087Z,12.15
2023-03-17T02:30:38.298Z,11.85
2023-03-17T02:33:06.105Z,10.80
2023-03-17T02:35:33.369Z,11.40
2023-03-17T02:38:01.166Z,10.88
2023-03-17T02:40:30.178Z,11.23
2023-03-17T02:42:57.543Z,10.40
2023-03-17T02:45:28.917Z,11.25
2023-03-17T02:47:57.243Z,11.25
2023-03-17T02:50:26.229Z,11.43
2023-03-17T02:52:53.498Z,12.50
2023-03-17T02:55:23.675Z,11.55
2023-03-17T02:57:51.883Z,11.57
2023-03-17T03:00:19.642Z,11.60
2023-03-17T03:02:47.031Z,12.05
2023-03-17T03:05:14.287Z,12.18
2023-03-17T03:07:41.543Z,11.10
2023-03-17T03:10:09.897Z,11.60
2023-03-17T03:12:37.306Z,11.55
2023-03-17T03:15:05.281Z,11.57
2023-03-17T03:17:32.703Z,10.70
2023-03-17T03:20:00.084Z,10.18
2023-03-17T03:22:27.461Z,10.30
2023-03-17T03:24:54.628Z,10.85
2023-03-17T03:27:22.228Z,10.77
2023-03-17T03:29:49.425Z,9.48
2023-03-17T03:32:17.116Z,10.05
2023-03-17T03:34:44.381Z,9.10
2023-03-17T03:37:11.671Z,10.48
2023-03-17T03:39:39.160Z,10.02
2023-03-17T03:42:07.097Z,9.23
2023-03-17T03:44:34.306Z,10.75
2023-03-17T03:47:01.806Z,9.10
2023-03-17T03:49:29.271Z,7.95
2023-03-17T03:51:56.895Z,8.15
2023-03-17T03:54:26.205Z,7.68
2023-03-17T03:56:53.422Z,7.85
2023-03-17T03:59:21.003Z,6.65
2023-03-17T04:01:48.243Z,6.82
2023-03-17T04:04:16.322Z,6.28
2023-03-17T04:06:43.587Z,7.50
2023-03-17T04:09:13.613Z,8.57
2023-03-17T04:11:41.822Z,6.85
2023-03-17T04:14:09.048Z,7.57
2023-03-17T04:16:36.528Z,7.82
2023-03-17T04:19:03.973Z,7.25
2023-03-17T04:21:31.207Z,6.47
2023-03-17T04:23:58.768Z,7.72
2023-03-17T04:26:26.045Z,6.00
2023-03-17T04:28:53.336Z,6.20
2023-03-17T04:31:21.173Z,6.85
2023-03-17T04:33:48.893Z,8.15
2023-03-17T04:36:20.620Z,6.93
2023-03-17T04:38:48.004Z,7.22
2023-03-17T04:41:15.386Z,6.35
2023-03-17T04:43:42.613Z,7.00
2023-03-17T04:46:10.037Z,5.05
2023-03-17T04:48:37.295Z,5.45
2023-03-17T04:51:04.812Z,5.90
2023-03-17T04:53:32.612Z,6.18
2023-03-17T04:55:59.799Z,5.80
2023-03-17T04:58:30.913Z,6.28
2023-03-17T05:01:02.512Z,6.50
2023-03-17T05:03:30.310Z,6.22
2023-03-17T05:06:00.990Z,5.78
2023-03-17T05:08:31.379Z,5.95
2023-03-17T05:10:58.795Z,6.22
2023-03-17T05:13:26.351Z,6.53
2023-03-17T05:15:55.291Z,6.00
2023-03-17T05:18:25.939Z,6.47
2023-03-17T05:20:53.320Z,5.55
2023-03-17T05:23:20.846Z,5.53
2023-03-17T05:25:48.454Z,6.40
2023-03-17T05:28:15.877Z,5.93
2023-03-17T05:30:43.190Z,6.60
2023-03-17T05:33:10.566Z,6.10
2023-03-17T05:35:38.100Z,6.07
2023-03-17T05:38:05.325Z,5.95
2023-03-17T05:40:32.804Z,6.45
2023-03-17T05:43:03.524Z,6.30
2023-03-17T05:45:30.824Z,6.40
2023-03-17T05:47:58.122Z,5.38
2023-03-17T05:50:26.009Z,5.32
2023-03-17T05:52:53.560Z,5.60
2023-03-17T05:55:20.979Z,7.00
2023-03-17T05:57:51.497Z,5.85
2023-03-17T06:00:23.153Z,4.82
2023-03-17T06:02:50.542Z,4.65
2023-03-17T06:05:17.905Z,5.32
2023-03-17T06:07:53.954Z,5.53
2023-03-17T06:10:24.221Z,5.00
2023-03-17T06:12:51.552Z,5.20
2023-03-17T06:15:19.240Z,5.18
2023-03-17T06:17:46.667Z,5.20
2023-03-17T06:20:14.527Z,5.30
2023-03-17T06:23:00.309Z,5.05
2023-03-17T06:25:30.620Z,5.18
2023-03-17T06:27:58.214Z,5.38
2023-03-17T06:30:25.534Z,4.97
2023-03-17T06:32:52.854Z,4.82
2023-03-17T06:35:23.082Z,4.53
2023-03-17T06:37:50.308Z,5.40
2023-03-17T06:40:18.018Z,5.10
2023-03-17T06:42:45.692Z,4.68
2023-03-17T06:45:13.314Z,4.25
2023-03-17T06:47:44.862Z,4.88
2023-03-17T06:50:22.596Z,4.90
2023-03-17T06:52:49.857Z,4.53
2023-03-17T06:55:18.023Z,4.95
2023-03-17T06:57:45.341Z,4.88
2023-03-17T07:00:14.239Z,4.97
2023-03-17T07:02:42.211Z,4.60
2023-03-17T07:05:09.906Z,4.30
2023-03-17T07:07:37.092Z,4.90
2023-03-17T07:10:05.738Z,4.88
2023-03-17T07:12:33.330Z,4.60
2023-03-17T07:15:01.412Z,4.18
2023-03-17T07:17:28.956Z,4.72
2023-03-17T07:19:56.627Z,5.07
2023-03-17T07:22:27.283Z,5.47
2023-03-17T07:24:54.582Z,4.40
2023-03-17T07:27:25.253Z,4.80
2023-03-17T07:29:53.138Z,3.75
2023-03-17T07:32:20.425Z,5.20
2023-03-17T07:34:47.668Z,6.55
2023-03-17T07:37:15.328Z,4.78
2023-03-17T07:39:42.613Z,4.43
2023-03-17T07:42:12.116Z,4.70
2023-03-17T07:44:41.561Z,4.88
2023-03-17T07:47:10.209Z,5.13
2023-03-17T07:49:41.567Z,4.32
2023-03-17T07:52:10.407Z,5.28
2023-03-17T07:54:37.771Z,5.57
2023-03-17T07:57:05.899Z,4.20
2023-03-17T07:59:33.514Z,6.25
2023-03-17T08:02:01.466Z,5.45
2023-03-17T08:04:29.241Z,5.50
2023-03-17T08:06:57.588Z,4.53
2023-03-17T08:09:25.701Z,5.65
2023-03-17T08:11:52.984Z,5.85
2023-03-17T08:14:20.507Z,5.50
2023-03-17T08:16:48.231Z,5.70
2023-03-17T08:19:16.430Z,5.35
2023-03-17T08:21:43.717Z,4.85
2023-03-17T08:24:11.970Z,5.60
2023-03-17T08:26:39.208Z,5.32
2023-03-17T08:29:08.219Z,4.57
2023-03-17T08:31:46.557Z,5.43
2023-03-17T08:34:14.113Z,5.20
2023-03-17T08:36:41.499Z,4.28
2023-03-17T08:39:10.540Z,4.70
2023-03-17T08:41:43.715Z,4.95
2023-03-17T08:44:17.285Z,4.75
2023-03-17T08:46:44.604Z,5.17
2023-03-17T08:49:12.681Z,5.43
2023-03-17T08:51:40.222Z,4.85
2023-03-17T08:54:07.817Z,4.65
2023-03-17T08:56:35.248Z,4.63
2023-03-17T08:59:06.878Z,4.07
2023-03-17T09:01:38.251Z,4.13
2023-03-17T09:04:05.759Z,4.80
2023-03-17T09:06:48.906Z,5.10
2023-03-17T09:09:23.631Z,4.47
2023-03-17T09:11:50.850Z,5.18
2023-03-17T09:14:21.533Z,4.90
2023-03-17T09:16:49.661Z,4.43
2023-03-17T09:19:20.391Z,4.70
2023-03-17T09:21:47.941Z,5.20
2023-03-17T09:24:15.310Z,5.40
2023-03-17T09:26:42.504Z,5.47
2023-03-17T09:29:12.678Z,4.72
2023-03-17T09:31:41.636Z,4.55
2023-03-17T09:34:09.829Z,5.15
2023-03-17T09:36:37.579Z,5.20
2023-03-17T09:39:04.827Z,5.10
2023-03-17T09:42:08.223Z,5.03
2023-03-17T09:45:09.551Z,5.55
2023-03-17T09:48:24.485Z,4.53
2023-03-17T09:51:11.715Z,4.43
2023-03-17T09:54:28.270Z,4.38
2023-03-17T09:57:04.463Z,4.90
2023-03-17T09:59:41.028Z,4.93
2023-03-17T10:02:30.892Z,5.15
2023-03-17T10:04:58.495Z,5.15
2023-03-17T10:07:44.772Z,4.63
2023-03-17T10:10:37.433Z,4.07
2023-03-17T10:13:36.966Z,5.35
2023-03-17T10:16:12.343Z,5.45
2023-03-17T10:18:49.677Z,4.18
2023-03-17T10:21:21.638Z,4.20
2023-03-17T10:23:49.211Z,4.63
2023-03-17T10:26:40.620Z,4.28
2023-03-17T10:29:34.240Z,4.05
2023-03-17T10:32:13.221Z,3.97
2023-03-17T10:34:41.632Z,4.00
2023-03-17T10:37:18.309Z,3.80
2023-03-17T10:39:51.435Z,3.83
2023-03-17T10:42:30.017Z,4.40
2023-03-17T10:45:17.621Z,3.88
2023-03-17T10:47:47.915Z,3.63
2023-03-17T10:50:25.319Z,3.50
2023-03-17T10:53:28.345Z,4.20
2023-03-17T10:56:08.460Z,3.60
2023-03-17T10:58:49.155Z,4.00
2023-03-17T11:01:30.370Z,3.40
2023-03-17T11:03:58.032Z,4.05
2023-03-17T11:06:38.238Z,4.47
2023-03-17T11:09:11.059Z,4.82
2023-03-17T11:11:46.996Z,5.25
2023-03-17T11:14:19.070Z,4.80
2023-03-17T11:16:53.872Z,5.20
2023-03-17T11:19:31.864Z,4.95
2023-03-17T11:22:21.128Z,5.25
2023-03-17T11:25:10.062Z,3.53
2023-03-17T11:27:54.163Z,3.42
2023-03-17T11:30:33.988Z,4.22
2023-03-17T11:33:42.493Z,5.30
2023-03-17T11:36:37.478Z,4.55
2023-03-17T11:42:23.145Z,4.95
2023-03-17T11:44:56.280Z,4.82
2023-03-17T11:47:39.369Z,4.55
2023-03-17T11:50:34.212Z,4.90
2023-03-17T11:53:30.396Z,4.88
2023-03-17T11:56:19.053Z,5.72
2023-03-17T11:58:50.079Z,4.53
2023-03-17T12:01:27.257Z,5.28
2023-03-17T12:04:23.321Z,4.53
2023-03-17T12:06:56.072Z,4.70
2023-03-17T12:10:09.969Z,5.60
2023-03-17T12:13:02.611Z,4.93
2023-03-17T12:15:54.052Z,5.15
2023-03-17T12:18:43.040Z,4.40
2023-03-17T12:21:39.928Z,4.40
2023-03-17T12:24:35.644Z,4.85
2023-03-17T12:27:25.985Z,4.40
2023-03-17T12:30:08.092Z,4.00
2023-03-17T12:32:42.897Z,4.50
2023-03-17T12:35:29.260Z,6.55
2023-03-17T12:37:58.335Z,4.90
2023-03-17T12:40:48.168Z,4.30
2023-03-17T12:43:35.721Z,5.40
2023-03-17T12:46:28.943Z,3.60
2023-03-17T12:49:11.335Z,4.25
2023-03-17T12:51:59.070Z,3.80
2023-03-17T12:54:36.999Z,3.90
2023-03-17T12:57:25.206Z,3.83
2023-03-17T13:00:05.666Z,3.95
2023-03-17T13:02:37.330Z,3.55
2023-03-17T13:05:32.641Z,3.70
2023-03-17T13:08:11.005Z,3.50
2023-03-17T13:10:40.937Z,4.10
2023-03-17T13:13:13.216Z,3.63
2023-03-17T13:15:40.517Z,3.28
2023-03-17T13:18:16.899Z,4.00
2023-03-17T13:21:13.640Z,3.63
2023-03-17T13:24:15.615Z,3.67
2023-03-17T13:27:00.847Z,3.75
2023-03-17T13:29:33.803Z,3.10
2023-03-17T13:32:16.906Z,3.30
2023-03-17T13:34:56.066Z,3.58
2023-03-17T13:37:47.835Z,3.55
2023-03-17T13:40:23.606Z,3.38
2023-03-17T13:43:19.938Z,3.83
2023-03-17T13:45:50.040Z,3.38
2023-03-17T13:48:38.153Z,3.40
2023-03-17T13:51:08.840Z,3.33
2023-03-17T13:53:59.021Z,3.67
2023-03-17T13:56:42.559Z,3.30
2023-03-17T13:59:17.413Z,3.20
2023-03-17T14:02:02.096Z,3.03
2023-03-17T14:04:45.149Z,3.50
2023-03-17T14:07:16.802Z,3.08
2023-03-17T14:09:44.063Z,2.70
2023-03-17T14:12:25.983Z,3.05
2023-03-17T14:15:08.261Z,2.95
2023-03-17T14:18:03.251Z,3.53
2023-03-17T14:20:30.668Z,3.35
2023-03-17T14:23:01.647Z,3.20
2023-03-17T14:25:38.973Z,3.28
2023-03-17T14:28:10.759Z,3.05
2023-03-17T14:30:39.818Z,3.55
2023-03-17T14:33:26.635Z,3.00
2023-03-17T14:35:57.152Z,3.17
2023-03-17T14:38:30.417Z,3.05
2023-03-17T14:41:13.767Z,3.97
2023-03-17T14:43:52.796Z,3.13
2023-03-17T14:46:42.083Z,3.65
2023-03-17T14:49:19.148Z,3.35
2023-03-17T14:51:59.153Z,3.25
2023-03-17T14:54:33.467Z,3.40
2023-03-17T14:59:56.410Z,3.30
2023-03-17T15:02:35.752Z,3.20
2023-03-17T15:05:40.453Z,3.97
2023-03-17T15:08:46.663Z,2.90
2023-03-17T15:11:43.442Z,2.25
2023-03-17T15:14:37.220Z,2.70
2023-03-17T15:17:27.258Z,3.10
2023-03-17T15:19:57.852Z,2.92
2023-03-17T15:22:50.033Z,3.05
2023-03-17T15:25:32.896Z,3.50
2023-03-17T15:28:00.311Z,3.72
2023-03-17T15:30:44.388Z,3.88
2023-03-17T15:33:21.976Z,3.55
2023-03-17T15:35:53.365Z,3.55
2023-03-17T15:38:21.688Z,3.13
2023-03-17T15:40:49.251Z,3.25
2023-03-17T15:43:17.626Z,3.78
2023-03-17T15:45:45.315Z,4.28
2023-03-17T15:48:35.214Z,4.53
2023-03-17T15:51:05.739Z,3.97
2023-03-17T15:53:32.883Z,4.32
2023-03-17T15:56:00.411Z,4.25
2023-03-17T15:58:27.579Z,3.88
2023-03-17T16:01:01.281Z,4.00
2023-03-17T16:03:33.384Z,3.30
2023-03-17T16:06:04.580Z,3.97
2023-03-17T16:08:31.928Z,3.80
2023-03-17T16:11:02.019Z,4.15
2023-03-17T16:13:30.156Z,4.53
2023-03-17T16:16:05.724Z,4.50
2023-03-17T16:18:42.373Z,4.03
2023-03-17T16:21:12.939Z,3.60
2023-03-17T16:23:40.112Z,4.53
2023-03-17T16:26:15.631Z,3.80
2023-03-17T16:28:46.033Z,4.07
2023-03-17T16:31:34.570Z,4.20
2023-03-17T16:34:01.982Z,3.83
2023-03-17T16:36:32.157Z,3.78
2023-03-17T16:39:00.061Z,4.85
2023-03-17T16:41:28.325Z,4.95
2023-03-17T16:44:00.654Z,6.97
2023-03-17T16:46:34.851Z,6.15
2023-03-17T16:49:04.194Z,6.97
2023-03-17T16:51:31.568Z,7.63
2023-03-17T16:54:01.203Z,8.15
2023-03-17T16:56:28.741Z,8.32
2023-03-17T16:58:55.937Z,9.15
2023-03-17T17:01:31.302Z,9.70
2023-03-17T17:03:58.607Z,10.00
2023-03-17T17:06:26.056Z,12.75
2023-03-17T17:08:53.373Z,13.23
2023-03-17T17:11:20.849Z,16.58
2023-03-17T17:13:48.613Z,17.90
2023-03-17T17:16:36.698Z,19.00
2023-03-17T17:19:04.389Z,19.52
2023-03-17T17:21:33.013Z,15.10
2023-03-17T17:24:00.448Z,13.27
2023-03-17T17:26:27.625Z,11.68
2023-03-17T17:28:54.869Z,11.48
2023-03-17T17:31:22.500Z,9.75
2023-03-17T17:33:49.615Z,11.13
2023-03-17T17:36:17.202Z,11.68
2023-03-17T17:38:44.517Z,12.30
2023-03-17T17:41:12.034Z,11.80
2023-03-17T17:43:39.569Z,10.48
2023-03-17T17:46:18.128Z,10.73
2023-03-17T17:48:45.731Z,10.75
2023-03-17T17:51:12.943Z,12.45
2023-03-17T17:53:40.399Z,12.20
2023-03-17T17:56:10.771Z,12.77
2023-03-17T17:58:37.946Z,12.68
2023-03-17T18:01:05.622Z,11.57
2023-03-17T18:03:33.255Z,11.75
2023-03-17T18:06:01.129Z,11.00
2023-03-17T18:08:28.411Z,13.18
2023-03-17T18:10:56.663Z,13.27
2023-03-17T18:13:24.047Z,13.27
2023-03-17T18:15:51.914Z,13.15
2023-03-17T18:18:19.086Z,14.23
2023-03-17T18:20:46.248Z,14.23
2023-03-17T18:23:13.431Z,13.93
2023-03-17T18:25:41.155Z,18.65
2023-03-17T18:28:08.280Z,13.38
2023-03-17T18:30:35.753Z,13.38
2023-03-17T18:33:10.193Z,13.73
2023-03-17T18:38:04.650Z,12.02
2023-03-17T18:40:33.105Z,14.85
2023-03-17T18:43:00.758Z,14.77
2023-03-17T18:45:28.026Z,15.18
2023-03-17T18:47:55.201Z,17.15
2023-03-17T18:50:22.437Z,16.95
2023-03-17T18:52:49.636Z,17.10
2023-03-17T18:55:17.177Z,17.23
2023-03-17T18:57:45.030Z,17.48
2023-03-17T19:00:14.087Z,17.25
2023-03-17T19:02:41.720Z,17.40
2023-03-17T19:05:09.610Z,17.90
2023-03-17T19:07:40.140Z,18.15
2023-03-17T19:10:12.056Z,16.35
2023-03-17T19:12:39.741Z,17.08
2023-03-17T19:15:10.356Z,19.00
2023-03-17T19:17:39.163Z,19.58
2023-03-17T19:20:08.688Z,19.23
2023-03-17T19:22:38.615Z,19.58
2023-03-17T19:25:06.362Z,20.70
2023-03-17T19:27:35.640Z,20.90
2023-03-17T19:30:04.622Z,21.48
2023-03-17T19:32:31.785Z,23.30
2023-03-17T19:34:58.973Z,21.63
2023-03-17T19:37:26.217Z,20.77
2023-03-17T19:39:53.493Z,18.25
2023-03-17T19:42:21.151Z,19.83
2023-03-17T19:44:48.316Z,17.50
2023-03-17T19:47:21.885Z,20.20
2023-03-17T19:49:49.065Z,17.40
2023-03-17T19:52:16.246Z,18.23
2023-03-17T19:54:45.862Z,17.05
2023-03-17T19:57:13.673Z,18.77
2023-03-17T19:59:43.205Z,17.40
2023-03-17T20:02:14.198Z,17.23
2023-03-17T20:04:41.495Z,17.20
2023-03-17T20:07:11.753Z,16.52
2023-03-17T20:09:42.211Z,14.10
2023-03-17T20:12:09.404Z,13.55
2023-03-17T20:14:36.798Z,12.45
2023-03-17T20:17:04.015Z,12.13
2023-03-17T20:19:31.649Z,12.40
2023-03-17T20:21:58.832Z,12.55
2023-03-17T20:24:27.112Z,12.60
2023-03-17T20:26:56.241Z,13.52
2023-03-17T20:29:24.104Z,12.93
2023-03-17T20:31:51.452Z,13.52
2023-03-17T20:34:18.613Z,12.45
2023-03-17T20:36:46.094Z,12.45
2023-03-17T20:39:19.692Z,13.10
2023-03-17T20:41:48.479Z,12.82
2023-03-17T20:44:18.900Z,11.85
2023-03-17T20:46:46.654Z,12.50
2023-03-17T20:49:13.899Z,11.65
2023-03-17T20:51:47.887Z,11.82
2023-03-17T20:54:23.308Z,11.40
2023-03-17T20:57:01.026Z,9.93
2023-03-17T20:59:28.276Z,8.25
2023-03-17T21:01:56.037Z,9.05
2023-03-17T21:04:23.256Z,8.80
2023-03-17T21:06:50.424Z,7.82
2023-03-17T21:09:17.691Z,7.38
2023-03-17T21:11:44.956Z,6.55
2023-03-17T21:14:13.856Z,6.85
2023-03-17T21:16:47.926Z,6.53
2023-03-17T21:19:16.240Z,6.82
2023-03-17T21:21:43.378Z,7.10
2023-03-17T21:24:25.048Z,6.75
2023-03-17T21:26:52.325Z,6.50
2023-03-17T21:29:19.478Z,6.85
2023-03-17T21:31:49.349Z,6.30
2023-03-17T21:34:25.606Z,6.88
2023-03-17T21:37:12.910Z,7.13
2023-03-17T21:39:52.758Z,7.18
2023-03-17T21:42:20.139Z,6.72
2023-03-17T21:44:48.331Z,6.05
2023-03-17T21:47:16.511Z,6.57
2023-03-17T21:49:43.654Z,6.15
2023-03-17T21:52:10.863Z,6.38
2023-03-17T21:54:38.039Z,6.55
2023-03-17T21:57:05.242Z,5.85
2023-03-17T21:59:34.440Z,6.80
2023-03-17T22:02:01.916Z,6.40
2023-03-17T22:04:29.060Z,6.30
2023-03-17T22:06:56.377Z,5.20
2023-03-17T22:09:23.542Z,6.30
2023-03-17T22:11:50.814Z,5.65
2023-03-17T22:14:20.149Z,5.40
2023-03-17T22:16:48.446Z,5.60
2023-03-17T22:19:16.916Z,5.68
2023-03-17T22:21:44.933Z,5.88
2023-03-17T22:24:12.679Z,5.75
2023-03-17T22:26:39.884Z,5.00
2023-03-17T22:29:07.090Z,5.55
2023-03-17T22:31:35.440Z,5.35
2023-03-17T22:34:02.846Z,5.50
2023-03-17T22:36:30.263Z,5.97
2023-03-17T22:38:58.381Z,5.00
2023-03-17T22:41:28.208Z,5.45
2023-03-17T22:43:55.520Z,5.03
2023-03-17T22:46:22.947Z,6.00
2023-03-17T22:48:50.360Z,4.55
2023-03-17T22:51:23.096Z,6.07
2023-03-17T22:53:50.952Z,6.05
2023-03-17T22:56:18.469Z,5.45
2023-03-17T22:58:45.959Z,5.45
2023-03-17T23:01:15.133Z,5.43
2023-03-17T23:03:43.175Z,5.47
2023-03-17T23:06:11.698Z,5.78
2023-03-17T23:08:39.456Z,5.43
2023-03-17T23:11:10.637Z,6.10
2023-03-17T23:13:38.194Z,6.40
2023-03-17T23:16:06.527Z,5.28
2023-03-17T23:18:34.022Z,6.03
2023-03-17T23:21:01.919Z,6.63
2023-03-17T23:23:29.214Z,5.40
2023-03-17T23:25:56.421Z,5.70
2023-03-17T23:28:24.140Z,5.85
2023-03-17T23:30:52.048Z,5.78
2023-03-17T23:33:22.813Z,5.25
2023-03-17T23:35:51.418Z,6.00
2023-03-17T23:38:22.332Z,5.60
2023-03-17T23:40:49.770Z,6.05
2023-03-17T23:43:18.434Z,5.68
2023-03-17T23:45:45.981Z,5.57
2023-03-17T23:48:32.872Z,5.43
2023-03-17T23:51:01.203Z,5.90
2023-03-17T23:53:29.812Z,5.80
2023-03-17T23:55:56.928Z,5.85
2023-03-17T23:58:25.944Z,6.78
